createdAt,value
2019-03-23T00:02:22.387Z,6.67
2019-03-23T00:04:50.721Z,7.27
2019-03-23T00:07:19.108Z,7.67
2019-03-23T00:09:47.458Z,6.80
2019-03-23T00:12:15.784Z,6.80
2019-03-23T00:14:44.334Z,8.30
2019-03-23T00:17:12.672Z,7.10
2019-03-23T00:19:41.053Z,5.57
2019-03-23T00:22:09.425Z,6.80
2019-03-23T00:24:37.732Z,5.93
2019-03-23T00:27:06.161Z,7.43
2019-03-23T00:29:34.470Z,9.33
2019-03-23T00:32:02.820Z,7.13
2019-03-23T00:34:31.274Z,7.50
2019-03-23T00:36:59.731Z,9.27
2019-03-23T00:39:28.135Z,7.43
2019-03-23T00:41:56.975Z,12.93
2019-03-23T00:44:25.350Z,8.63
2019-03-23T00:46:53.781Z,6.13
2019-03-23T00:49:22.089Z,5.63
2019-03-23T00:51:50.422Z,8.93
2019-03-23T00:54:18.813Z,6.40
2019-03-23T00:56:47.139Z,8.13
2019-03-23T00:59:15.468Z,8.17
2019-03-23T01:01:43.822Z,6.20
2019-03-23T01:04:12.173Z,8.40
2019-03-23T01:06:40.563Z,5.47
2019-03-23T01:09:08.927Z,5.97
2019-03-23T01:11:37.246Z,6.13
2019-03-23T01:14:05.631Z,8.50
2019-03-23T01:16:33.968Z,5.80
2019-03-23T01:19:02.351Z,5.87
2019-03-23T01:21:30.650Z,4.77
2019-03-23T01:23:58.985Z,5.93
2019-03-23T01:26:27.337Z,6.00
2019-03-23T01:28:55.650Z,5.03
2019-03-23T01:31:24.039Z,5.17
2019-03-23T01:33:52.392Z,12.67
2019-03-23T01:36:20.718Z,4.47
2019-03-23T01:38:49.090Z,4.83
2019-03-23T01:41:17.443Z,3.77
2019-03-23T01:43:45.760Z,5.10
2019-03-23T01:46:14.221Z,3.00
2019-03-23T01:48:42.556Z,3.77
2019-03-23T01:51:10.870Z,4.63
2019-03-23T01:53:39.278Z,5.57
2019-03-23T01:56:07.605Z,3.73
2019-03-23T01:58:35.981Z,4.57
2019-03-23T02:01:04.559Z,4.33
2019-03-23T02:03:32.889Z,5.57
2019-03-23T02:06:01.224Z,4.37
2019-03-23T02:08:29.593Z,4.30
2019-03-23T02:10:57.979Z,3.87
2019-03-23T02:13:26.371Z,8.50
2019-03-23T02:15:54.708Z,5.87
2019-03-23T02:18:23.019Z,5.57
2019-03-23T02:20:51.402Z,5.27
2019-03-23T02:23:19.757Z,6.37
2019-03-23T02:25:48.081Z,6.03
2019-03-23T02:28:16.479Z,6.57
2019-03-23T02:30:44.806Z,8.33
2019-03-23T02:33:13.141Z,9.83
2019-03-23T02:35:41.535Z,9.87
2019-03-23T02:38:09.862Z,7.50
2019-03-23T02:40:38.182Z,7.67
2019-03-23T02:43:06.576Z,7.23
2019-03-23T02:45:34.949Z,5.40
2019-03-23T02:48:03.336Z,8.67
2019-03-23T02:50:31.718Z,8.63
2019-03-23T02:53:00.061Z,7.37
2019-03-23T02:55:28.410Z,8.83
2019-03-23T02:57:56.793Z,7.80
2019-03-23T03:00:27.472Z,10.70
2019-03-23T03:02:55.272Z,7.77
2019-03-23T03:05:23.645Z,7.60
2019-03-23T03:07:51.974Z,9.57
2019-03-23T03:10:48.557Z,9.43
2019-03-23T03:13:16.858Z,9.37
2019-03-23T03:15:45.196Z,9.20
2019-03-23T03:18:13.684Z,9.60
2019-03-23T03:20:42.027Z,9.13
2019-03-23T03:23:10.346Z,9.80
2019-03-23T03:25:38.707Z,9.40
2019-03-23T03:28:07.041Z,10.53
2019-03-23T03:30:35.477Z,10.27
2019-03-23T03:33:03.813Z,11.70
2019-03-23T03:35:32.183Z,14.07
2019-03-23T03:38:00.586Z,11.53
2019-03-23T03:40:28.943Z,12.57
2019-03-23T03:42:57.257Z,14.07
2019-03-23T03:45:26.554Z,13.70
2019-03-23T03:47:54.986Z,14.60
2019-03-23T03:50:23.343Z,12.07
2019-03-23T03:52:51.707Z,12.60
2019-03-23T03:55:20.038Z,14.43
2019-03-23T03:57:48.455Z,15.83
2019-03-23T04:00:16.864Z,14.73
2019-03-23T04:02:45.801Z,16.90
2019-03-23T04:05:14.208Z,17.60
2019-03-23T04:07:42.513Z,19.73
2019-03-23T04:10:10.948Z,19.77
2019-03-23T04:12:39.341Z,21.83
2019-03-23T04:15:08.102Z,22.47
2019-03-23T04:17:36.410Z,20.03
2019-03-23T04:20:05.706Z,22.97
2019-03-23T04:22:34.030Z,23.53
2019-03-23T04:25:02.390Z,23.50
2019-03-23T04:27:30.735Z,24.43
2019-03-23T04:29:59.061Z,25.27
2019-03-23T04:32:27.434Z,21.97
2019-03-23T04:34:55.764Z,23.37
2019-03-23T04:37:24.213Z,27.40
2019-03-23T04:39:52.599Z,25.57
2019-03-23T04:42:20.915Z,26.57
2019-03-23T04:44:49.229Z,28.80
2019-03-23T04:47:17.611Z,27.33
2019-03-23T04:49:45.983Z,25.30
2019-03-23T04:52:14.382Z,23.83
2019-03-23T04:54:42.705Z,26.63
2019-03-23T04:57:11.029Z,28.03
2019-03-23T04:59:39.448Z,29.37
2019-03-23T05:02:07.764Z,25.40
2019-03-23T05:04:36.100Z,28.33
2019-03-23T05:07:04.607Z,29.03
2019-03-23T05:09:32.923Z,27.43
2019-03-23T05:12:01.252Z,29.73
2019-03-23T05:14:29.596Z,32.67
2019-03-23T05:16:57.927Z,28.60
2019-03-23T05:19:26.314Z,29.33
2019-03-23T05:21:54.625Z,28.60
2019-03-23T05:24:22.970Z,29.77
2019-03-23T05:26:51.386Z,28.87
2019-03-23T05:29:19.722Z,29.67
2019-03-23T05:31:48.047Z,32.57
2019-03-23T05:34:16.409Z,31.57
2019-03-23T05:36:44.717Z,30.47
2019-03-23T05:39:13.120Z,30.33
2019-03-23T05:41:41.444Z,27.43
2019-03-23T05:44:09.769Z,29.03
2019-03-23T05:46:38.126Z,27.53
2019-03-23T05:49:06.463Z,29.13
2019-03-23T05:51:34.825Z,27.27
2019-03-23T05:54:03.206Z,29.27
2019-03-23T05:56:31.559Z,24.63
2019-03-23T05:59:00.164Z,28.10
2019-03-23T06:01:28.603Z,27.17
2019-03-23T06:03:56.910Z,25.30
2019-03-23T06:06:25.255Z,29.23
2019-03-23T06:08:55.303Z,26.10
2019-03-23T06:11:23.823Z,24.23
2019-03-23T06:13:52.203Z,28.47
2019-03-23T06:16:20.558Z,29.13
2019-03-23T06:18:48.895Z,25.30
2019-03-23T06:21:17.333Z,25.83
2019-03-23T06:23:45.676Z,26.60
2019-03-23T06:26:14.008Z,25.70
2019-03-23T06:28:42.503Z,21.57
2019-03-23T06:31:10.833Z,24.77
2019-03-23T06:33:39.212Z,18.60
2019-03-23T06:36:07.532Z,25.77
2019-03-23T06:38:35.869Z,20.93
2019-03-23T06:41:04.508Z,18.37
2019-03-23T06:43:32.840Z,24.33
2019-03-23T06:46:01.211Z,20.57
2019-03-23T06:48:29.563Z,16.70
2019-03-23T06:50:57.897Z,16.20
2019-03-23T06:53:26.441Z,17.13
2019-03-23T06:55:54.757Z,17.27
2019-03-23T06:58:23.096Z,16.40
2019-03-23T07:00:51.512Z,19.43
2019-03-23T07:03:19.854Z,16.87
2019-03-23T07:05:48.206Z,14.60
2019-03-23T07:08:16.749Z,13.57
2019-03-23T07:10:45.059Z,11.93
2019-03-23T07:13:13.451Z,11.77
2019-03-23T07:15:41.777Z,11.83
2019-03-23T07:18:10.110Z,13.20
2019-03-23T07:20:38.526Z,12.77
2019-03-23T07:23:06.859Z,10.10
2019-03-23T07:25:35.240Z,10.43
2019-03-23T07:28:03.725Z,10.10
2019-03-23T07:30:32.039Z,10.10
2019-03-23T07:33:00.439Z,10.30
2019-03-23T07:35:28.912Z,11.03
2019-03-23T07:37:57.231Z,12.00
2019-03-23T07:40:25.590Z,9.97
2019-03-23T07:42:54.013Z,9.53
2019-03-23T07:45:23.112Z,9.60
2019-03-23T07:47:51.415Z,7.67
2019-03-23T07:50:19.749Z,9.57
2019-03-23T07:52:48.107Z,7.60
2019-03-23T07:55:16.837Z,9.77
2019-03-23T07:57:45.254Z,7.60
2019-03-23T08:00:17.906Z,7.13
2019-03-23T08:02:46.381Z,7.30
2019-03-23T08:05:14.904Z,8.37
2019-03-23T08:07:43.278Z,6.07
2019-03-23T08:10:23.127Z,7.70
2019-03-23T08:12:51.447Z,8.00
2019-03-23T08:15:19.793Z,8.87
2019-03-23T08:17:48.135Z,6.23
2019-03-23T08:20:16.450Z,9.33
2019-03-23T08:22:44.784Z,8.07
2019-03-23T08:25:13.162Z,5.37
2019-03-23T08:27:41.703Z,8.13
2019-03-23T08:30:10.084Z,7.03
2019-03-23T08:32:38.487Z,7.70
2019-03-23T08:35:06.906Z,7.57
2019-03-23T08:37:35.241Z,8.50
2019-03-23T08:40:04.281Z,7.57
2019-03-23T08:42:34.904Z,7.77
2019-03-23T08:45:02.842Z,6.43
2019-03-23T08:47:31.178Z,7.17
2019-03-23T08:49:59.709Z,6.67
2019-03-23T08:52:29.043Z,6.80
2019-03-23T08:54:57.574Z,5.13
2019-03-23T08:57:25.920Z,8.17
2019-03-23T08:59:54.298Z,5.83
2019-03-23T09:02:22.631Z,7.23
2019-03-23T09:04:50.969Z,10.40
2019-03-23T09:07:19.322Z,7.77
2019-03-23T09:09:47.723Z,8.13
2019-03-23T09:12:16.064Z,8.10
2019-03-23T09:14:44.396Z,9.70
2019-03-23T09:17:12.753Z,8.63
2019-03-23T09:19:41.116Z,5.60
2019-03-23T09:22:09.456Z,13.60
2019-03-23T09:24:37.921Z,9.63
2019-03-23T09:27:06.257Z,5.13
2019-03-23T09:29:34.620Z,7.10
2019-03-23T09:32:02.967Z,6.50
2019-03-23T09:34:31.292Z,8.53
2019-03-23T09:36:59.678Z,6.43
2019-03-23T09:39:28.056Z,6.73
2019-03-23T09:41:56.505Z,11.23
2019-03-23T09:44:24.853Z,8.10
2019-03-23T09:46:53.214Z,7.53
2019-03-23T09:49:22.145Z,6.67
2019-03-23T09:51:50.658Z,7.80
2019-03-23T09:54:19.049Z,8.30
2019-03-23T09:56:47.358Z,7.83
2019-03-23T09:59:15.763Z,6.07
2019-03-23T10:01:44.087Z,7.40
2019-03-23T10:04:12.412Z,6.87
2019-03-23T10:06:40.792Z,9.80
2019-03-23T10:09:09.085Z,6.47
2019-03-23T10:11:37.418Z,8.13
2019-03-23T10:14:05.815Z,10.43
2019-03-23T10:16:34.146Z,6.93
2019-03-23T10:19:02.499Z,13.87
2019-03-23T10:21:30.886Z,6.27
2019-03-23T10:23:59.203Z,15.50
2019-03-23T10:26:27.520Z,10.97
2019-03-23T10:28:55.945Z,7.27
2019-03-23T10:31:24.263Z,11.10
2019-03-23T10:33:52.597Z,7.80
2019-03-23T10:36:21.011Z,6.87
2019-03-23T10:38:49.332Z,10.10
2019-03-23T10:41:18.200Z,7.47
2019-03-23T10:43:46.588Z,8.10
2019-03-23T10:46:14.938Z,8.27
2019-03-23T10:48:43.239Z,6.67
2019-03-23T10:51:11.638Z,8.03
2019-03-23T10:53:39.939Z,9.60
2019-03-23T10:56:08.383Z,8.67
2019-03-23T10:58:36.724Z,8.63
2019-03-23T11:01:05.082Z,9.23
2019-03-23T11:03:33.453Z,9.80
2019-03-23T11:06:01.798Z,6.73
2019-03-23T11:08:30.136Z,8.87
2019-03-23T11:10:58.519Z,8.03
2019-03-23T11:13:26.853Z,7.27
2019-03-23T11:15:55.231Z,8.03
2019-03-23T11:18:23.668Z,7.37
2019-03-23T11:20:52.067Z,6.70
2019-03-23T11:23:20.427Z,4.10
2019-03-23T11:25:48.810Z,7.60
2019-03-23T11:28:17.170Z,10.13
2019-03-23T11:30:45.617Z,7.87
2019-03-23T11:33:13.975Z,5.70
2019-03-23T11:35:42.325Z,9.00
2019-03-23T11:38:10.702Z,6.43
2019-03-23T11:40:39.081Z,10.30
2019-03-23T11:43:07.520Z,8.47
2019-03-23T11:45:35.839Z,7.40
2019-03-23T11:48:04.345Z,9.00
2019-03-23T11:50:32.815Z,8.30
2019-03-23T11:53:01.189Z,8.90
2019-03-23T11:55:29.632Z,6.60
2019-03-23T11:57:58.145Z,13.07
2019-03-23T12:00:26.566Z,8.27
2019-03-23T12:02:55.016Z,5.57
2019-03-23T12:05:23.448Z,6.20
2019-03-23T12:07:51.813Z,10.60
2019-03-23T12:10:20.186Z,7.83
2019-03-23T12:12:48.639Z,6.03
2019-03-23T12:15:17.006Z,6.07
2019-03-23T12:17:45.363Z,14.93
2019-03-23T12:20:14.120Z,7.90
2019-03-23T12:22:42.557Z,6.23
2019-03-23T12:25:11.025Z,4.73
2019-03-23T12:27:39.404Z,6.70
2019-03-23T12:30:09.433Z,6.97
2019-03-23T12:32:38.401Z,19.20
2019-03-23T12:35:06.984Z,5.40
2019-03-23T12:37:35.405Z,4.83
2019-03-23T12:40:04.215Z,10.27
2019-03-23T12:42:32.632Z,4.77
2019-03-23T12:45:00.961Z,7.73
2019-03-23T12:47:29.869Z,4.80
2019-03-23T12:49:58.201Z,7.03
2019-03-23T12:52:26.575Z,5.80
2019-03-23T12:54:54.953Z,10.17
2019-03-23T12:57:23.329Z,8.67
2019-03-23T12:59:51.643Z,6.57
2019-03-23T13:02:20.064Z,7.33
2019-03-23T13:04:48.415Z,7.67
2019-03-23T13:07:16.743Z,13.70
2019-03-23T13:09:45.123Z,5.10
2019-03-23T13:12:13.435Z,6.53
2019-03-23T13:14:41.835Z,6.30
2019-03-23T13:17:10.231Z,4.87
2019-03-23T13:19:38.579Z,4.70
2019-03-23T13:22:06.923Z,5.03
2019-03-23T13:24:35.322Z,5.83
2019-03-23T13:27:03.782Z,5.50
2019-03-23T13:29:32.139Z,12.33
2019-03-23T13:32:00.502Z,11.93
2019-03-23T13:34:28.832Z,5.13
2019-03-23T13:36:57.188Z,7.37
2019-03-23T13:39:25.569Z,5.10
2019-03-23T13:41:53.897Z,4.03
2019-03-23T13:44:22.303Z,5.07
2019-03-23T13:46:50.624Z,3.30
2019-03-23T13:49:18.978Z,7.87
2019-03-23T13:51:47.399Z,5.10
2019-03-23T13:54:15.741Z,7.57
2019-03-23T13:56:44.058Z,4.70
2019-03-23T13:59:12.465Z,6.80
2019-03-23T14:01:40.789Z,7.80
2019-03-23T14:04:09.174Z,6.03
2019-03-23T14:06:37.514Z,6.27
2019-03-23T14:09:06.764Z,5.17
2019-03-23T14:11:35.150Z,6.33
2019-03-23T14:14:03.507Z,5.80
2019-03-23T14:16:31.842Z,10.60
2019-03-23T14:19:00.245Z,7.90
2019-03-23T14:21:28.522Z,4.80
2019-03-23T14:23:56.936Z,6.80
2019-03-23T14:26:25.288Z,5.70
2019-03-23T14:28:53.600Z,5.60
2019-03-23T14:31:21.962Z,5.33
2019-03-23T14:33:50.296Z,8.73
2019-03-23T14:36:18.638Z,4.07
2019-03-23T14:38:47.003Z,3.70
2019-03-23T14:41:15.321Z,5.77
2019-03-23T14:43:43.758Z,9.17
2019-03-23T14:46:12.093Z,13.93
2019-03-23T14:48:40.400Z,7.30
2019-03-23T14:51:08.808Z,7.20
2019-03-23T14:53:37.159Z,5.87
2019-03-23T14:56:05.503Z,5.67
2019-03-23T14:58:33.905Z,5.10
2019-03-23T15:01:02.267Z,7.73
2019-03-23T15:03:30.593Z,7.10
2019-03-23T15:05:58.985Z,8.73
2019-03-23T15:08:27.290Z,5.47
2019-03-23T15:10:55.621Z,8.97
2019-03-23T15:13:24.000Z,5.87
2019-03-23T15:15:52.342Z,7.50
2019-03-23T15:18:20.658Z,7.37
2019-03-23T15:20:49.046Z,5.50
2019-03-23T15:23:17.373Z,7.93
2019-03-23T15:25:45.738Z,7.87
2019-03-23T15:28:14.094Z,9.20
2019-03-23T15:30:42.430Z,8.33
2019-03-23T15:33:10.807Z,5.90
2019-03-23T15:35:39.126Z,4.13
2019-03-23T15:38:07.478Z,4.70
2019-03-23T15:40:35.848Z,7.73
2019-03-23T15:43:04.238Z,5.73
2019-03-23T15:45:32.563Z,9.70
2019-03-23T15:48:00.939Z,9.53
2019-03-23T15:50:29.252Z,17.10
2019-03-23T15:52:57.625Z,8.90
2019-03-23T15:55:25.951Z,6.67
2019-03-23T15:57:54.293Z,7.63
2019-03-23T16:00:22.721Z,8.17
2019-03-23T16:02:51.064Z,12.17
2019-03-23T16:05:19.372Z,7.70
2019-03-23T16:07:47.768Z,8.33
2019-03-23T16:10:16.091Z,6.93
2019-03-23T16:12:44.410Z,10.07
2019-03-23T16:15:12.952Z,11.37
2019-03-23T16:17:41.272Z,5.87
2019-03-23T16:20:10.394Z,7.83
2019-03-23T16:22:38.875Z,9.03
2019-03-23T16:25:07.773Z,7.70
2019-03-23T16:27:36.095Z,9.87
2019-03-23T16:30:05.343Z,8.23
2019-03-23T16:32:33.679Z,11.63
2019-03-23T16:35:02.007Z,7.10
2019-03-23T16:37:30.381Z,8.63
2019-03-23T16:39:58.726Z,11.73
2019-03-23T16:42:27.117Z,8.07
2019-03-23T16:44:55.458Z,10.37
2019-03-23T16:47:23.797Z,6.37
2019-03-23T16:49:52.164Z,7.57
2019-03-23T16:52:20.509Z,13.80
2019-03-23T16:54:48.825Z,7.67
2019-03-23T16:57:17.198Z,10.90
2019-03-23T16:59:45.637Z,10.50
2019-03-23T17:02:13.969Z,8.37
2019-03-23T17:04:42.368Z,9.20
2019-03-23T17:07:10.689Z,7.93
2019-03-23T17:09:38.992Z,7.33
2019-03-23T17:12:07.391Z,12.30
2019-03-23T17:14:35.723Z,8.20
2019-03-23T17:17:04.091Z,9.07
2019-03-23T17:19:32.455Z,7.77
2019-03-23T17:22:00.772Z,11.50
2019-03-23T17:24:29.110Z,16.60
2019-03-23T17:26:57.551Z,9.13
2019-03-23T17:29:25.897Z,7.80
2019-03-23T17:31:54.216Z,8.43
2019-03-23T17:34:22.587Z,7.77
2019-03-23T17:36:50.920Z,7.43
2019-03-23T17:39:19.233Z,9.83
2019-03-23T17:41:47.583Z,9.13
2019-03-23T17:44:15.946Z,8.27
2019-03-23T17:46:44.317Z,10.30
2019-03-23T17:49:12.677Z,11.60
2019-03-23T17:51:41.005Z,8.90
2019-03-23T17:54:09.348Z,9.10
2019-03-23T17:56:37.740Z,6.87
2019-03-23T17:59:06.064Z,8.90
2019-03-23T18:01:34.566Z,8.93
2019-03-23T18:04:02.994Z,9.73
2019-03-23T18:06:31.340Z,11.13
2019-03-23T18:08:59.648Z,13.37
2019-03-23T18:11:28.082Z,11.27
2019-03-23T18:13:56.552Z,14.37
2019-03-23T18:16:24.859Z,8.67
2019-03-23T18:18:53.204Z,10.07
2019-03-23T18:21:21.694Z,11.07
2019-03-23T18:23:50.042Z,7.30
2019-03-23T18:26:18.403Z,8.77
2019-03-23T18:28:46.867Z,6.77
2019-03-23T18:31:15.257Z,9.83
2019-03-23T18:33:43.648Z,12.90
2019-03-23T18:36:12.062Z,12.40
2019-03-23T18:38:40.461Z,9.70
2019-03-23T18:41:08.908Z,14.97
2019-03-23T18:43:37.403Z,12.27
2019-03-23T18:46:05.846Z,10.93
2019-03-23T18:48:34.220Z,7.60
2019-03-23T18:51:02.670Z,9.10
2019-03-23T18:53:31.131Z,9.83
2019-03-23T18:55:59.565Z,10.33
2019-03-23T18:58:27.906Z,9.17
2019-03-23T19:00:56.248Z,12.00
2019-03-23T19:03:24.686Z,8.47
2019-03-23T19:05:53.001Z,12.27
2019-03-23T19:08:21.364Z,10.33
2019-03-23T19:10:50.609Z,11.17
2019-03-23T19:13:18.903Z,16.57
2019-03-23T19:15:47.217Z,10.87
2019-03-23T19:18:15.643Z,10.17
2019-03-23T19:20:44.585Z,7.17
2019-03-23T19:23:13.010Z,13.27
2019-03-23T19:25:41.499Z,10.63
2019-03-23T19:28:09.947Z,8.50
2019-03-23T19:30:38.287Z,10.53
2019-03-23T19:33:06.701Z,7.50
2019-03-23T19:35:35.125Z,8.33
2019-03-23T19:38:03.655Z,12.53
2019-03-23T19:40:31.989Z,11.23
2019-03-23T19:43:00.503Z,8.63
2019-03-23T19:45:28.916Z,10.47
2019-03-23T19:47:57.267Z,8.13
2019-03-23T19:50:25.734Z,7.30
2019-03-23T19:52:54.113Z,11.30
2019-03-23T19:55:22.435Z,4.47
2019-03-23T19:57:54.455Z,12.03
2019-03-23T20:00:21.153Z,9.73
2019-03-23T20:02:49.511Z,7.57
2019-03-23T20:05:17.939Z,10.70
2019-03-23T20:07:46.617Z,9.57
2019-03-23T20:10:15.340Z,7.30
2019-03-23T20:12:43.738Z,8.57
2019-03-23T20:15:13.394Z,9.97
2019-03-23T20:17:41.780Z,7.90
2019-03-23T20:20:10.577Z,7.87
2019-03-23T20:22:38.899Z,7.17
2019-03-23T20:25:07.704Z,10.70
2019-03-23T20:27:36.255Z,6.50
2019-03-23T20:30:05.840Z,5.70
2019-03-23T20:32:34.185Z,9.67
2019-03-23T20:35:02.539Z,7.43
2019-03-23T20:37:30.958Z,6.93
2019-03-23T20:39:59.283Z,7.37
2019-03-23T20:42:27.752Z,7.07
2019-03-23T20:44:56.123Z,8.90
2019-03-23T20:47:24.465Z,5.33
2019-03-23T20:49:52.911Z,11.13
2019-03-23T20:52:21.265Z,7.53
2019-03-23T20:54:49.724Z,9.13
2019-03-23T20:57:23.801Z,11.47
2019-03-23T20:59:48.153Z,9.53
2019-03-23T21:02:16.574Z,7.60
2019-03-23T21:04:45.003Z,8.57
2019-03-23T21:07:13.323Z,18.63
2019-03-23T21:09:41.676Z,5.70
2019-03-23T21:12:10.028Z,7.73
2019-03-23T21:14:38.425Z,10.43
2019-03-23T21:17:06.763Z,6.27
2019-03-23T21:19:35.069Z,7.03
2019-03-23T21:22:03.456Z,7.23
2019-03-23T21:24:31.793Z,9.67
2019-03-23T21:27:00.113Z,9.40
2019-03-23T21:29:28.507Z,9.17
2019-03-23T21:31:56.812Z,8.23
2019-03-23T21:34:25.175Z,9.73
2019-03-23T21:36:53.514Z,8.50
2019-03-23T21:39:21.853Z,5.77
2019-03-23T21:41:50.204Z,9.97
2019-03-23T21:44:18.590Z,5.37
2019-03-23T21:46:47.036Z,8.67
2019-03-23T21:49:15.505Z,7.37
2019-03-23T21:51:43.821Z,6.63
2019-03-23T21:54:12.146Z,6.50
2019-03-23T21:56:40.523Z,7.53
2019-03-23T21:59:08.860Z,5.37
2019-03-23T22:01:37.330Z,8.03
2019-03-23T22:04:05.766Z,7.97
2019-03-23T22:06:34.120Z,8.07
2019-03-23T22:09:03.968Z,6.10
2019-03-23T22:11:32.379Z,4.83
2019-03-23T22:14:00.690Z,7.00
2019-03-23T22:16:29.029Z,6.10
2019-03-23T22:18:57.417Z,4.07
2019-03-23T22:21:25.729Z,7.10
2019-03-23T22:23:54.057Z,7.20
2019-03-23T22:26:22.441Z,8.23
2019-03-23T22:28:50.748Z,7.77
2019-03-23T22:31:19.155Z,7.20
2019-03-23T22:33:47.499Z,7.83
2019-03-23T22:36:15.814Z,5.00
2019-03-23T22:38:44.242Z,4.23
2019-03-23T22:41:12.553Z,6.47
2019-03-23T22:43:40.953Z,9.33
2019-03-23T22:46:09.386Z,3.47
2019-03-23T22:48:37.722Z,7.00
2019-03-23T22:51:06.044Z,4.87
2019-03-23T22:53:34.415Z,3.03
2019-03-23T22:56:02.754Z,7.37
2019-03-23T22:58:31.178Z,4.90
2019-03-23T23:00:59.684Z,5.47
2019-03-23T23:03:28.002Z,5.80
2019-03-23T23:05:56.470Z,10.43
2019-03-23T23:08:24.796Z,7.03
2019-03-23T23:10:53.123Z,4.10
2019-03-23T23:13:21.529Z,5.23
2019-03-23T23:15:49.841Z,7.57
2019-03-23T23:18:18.189Z,5.43
2019-03-23T23:20:46.600Z,9.20
2019-03-23T23:23:14.949Z,7.63
2019-03-23T23:25:43.241Z,8.03
2019-03-23T23:28:11.660Z,4.37
2019-03-23T23:30:39.976Z,4.90
2019-03-23T23:33:08.325Z,7.20
2019-03-23T23:35:36.813Z,5.73
2019-03-23T23:38:05.235Z,4.83
2019-03-23T23:40:33.574Z,6.03
2019-03-23T23:43:01.965Z,4.33
2019-03-23T23:45:30.326Z,3.67
2019-03-23T23:47:58.645Z,4.30
2019-03-23T23:50:26.993Z,6.70
2019-03-23T23:52:55.339Z,4.27
2019-03-23T23:55:23.744Z,6.37
2019-03-23T23:57:52.083Z,3.30
